Аэропорт: Борисполь. Киев

ICAO: UKBB

METAR:
2019/03/26 13:00
UKBB 261300Z 33006MPS 230V010 9999 -SHRASN SCT018CB BKN028 06/01 Q1012 R88/290050 TEMPO 30006G12MPS SCT015CB
METAR:
2019/03/26 12:12
TAF TAF UKBB 261108Z 2612/2712 28005G10MPS 9999 BKN014 TX07/2612Z TN00/2704Z 
      TEMPO 2612/2618 30006G12MPS 2100 -SHRASN BKN004 SCT015CB PROB40 
      TEMPO 2612/2618 1500 TSRA BKN004 BKN015CB 
      BECMG 2618/2620 18004G09MPS 6000 BKN008 
      TEMPO 2620/2712 1200 -SHRASN BR BKN004 BKN012CB 
      BECMG 2706/2708 35005G11MPS